Terminal Aerodrome Forecast
Issued by NWS

Home | Current Version | Previous Version | Text Only | Print | Product List | Glossary On
Versions: 1 2 3 4 5 6 7 8 9 10 11 12 13 14 15 16
923
FTUS43 KLSX 220520
TAFUIN
TAF
KUIN 220520Z 2206/2306 20008KT P6SM FEW050 BKN200
     FM220700 06015G25KT P6SM BKN120
     FM220800 07012KT P6SM VCTS OVC060CB
      TEMPO 2208/2211 3SM TSRA OVC030CB
     FM221200 20008KT P6SM FEW050 BKN250=

USA.gov is the U.S. government's official web portal to all federal, state and local government web resources and services.